sensor_id;sensor_type;location;lat;lon;timestamp;P1;durP1;ratioP1;P2;durP2;ratioP2
41883;SDS011;27566;50.930;5.328;2024-02-15T00:01:33;20.73;;;8.38;;
41883;SDS011;27566;50.930;5.328;2024-02-15T00:03:59;17.27;;;7.65;;
41883;SDS011;27566;50.930;5.328;2024-02-15T00:06:25;11.63;;;6.95;;
41883;SDS011;27566;50.930;5.328;2024-02-15T00:08:51;17.67;;;9.20;;
41883;SDS011;27566;50.930;5.328;2024-02-15T00:11:17;21.20;;;8.40;;
41883;SDS011;27566;50.930;5.328;2024-02-15T00:13:43;15.68;;;7.18;;
41883;SDS011;27566;50.930;5.328;2024-02-15T00:16:13;17.35;;;8.77;;
41883;SDS011;27566;50.930;5.328;2024-02-15T00:18:40;16.45;;;7.00;;
41883;SDS011;27566;50.930;5.328;2024-02-15T00:21:06;16.20;;;7.15;;
41883;SDS011;27566;50.930;5.328;2024-02-15T00:23:32;17.25;;;8.30;;
41883;SDS011;27566;50.930;5.328;2024-02-15T00:25:58;17.92;;;6.45;;
41883;SDS011;27566;50.930;5.328;2024-02-15T00:28:25;12.73;;;6.32;;
41883;SDS011;27566;50.930;5.328;2024-02-15T00:30:52;19.83;;;8.35;;
41883;SDS011;27566;50.930;5.328;2024-02-15T00:33:18;18.15;;;6.35;;
41883;SDS011;27566;50.930;5.328;2024-02-15T00:35:44;16.17;;;7.93;;
41883;SDS011;27566;50.930;5.328;2024-02-15T00:38:10;16.42;;;6.45;;
41883;SDS011;27566;50.930;5.328;2024-02-15T00:40:36;19.60;;;9.68;;
41883;SDS011;27566;50.930;5.328;2024-02-15T00:43:02;20.13;;;6.75;;
41883;SDS011;27566;50.930;5.328;2024-02-15T00:45:28;16.70;;;5.72;;
41883;SDS011;27566;50.930;5.328;2024-02-15T00:47:54;12.57;;;5.18;;
41883;SDS011;27566;50.930;5.328;2024-02-15T00:50:21;13.80;;;6.72;;
41883;SDS011;27566;50.930;5.328;2024-02-15T00:52:47;15.55;;;7.72;;
41883;SDS011;27566;50.930;5.328;2024-02-15T00:55:13;12.77;;;6.10;;
41883;SDS011;27566;50.930;5.328;2024-02-15T00:57:39;11.98;;;5.97;;
41883;SDS011;27566;50.930;5.328;2024-02-15T01:00:05;16.83;;;7.15;;
41883;SDS011;27566;50.930;5.328;2024-02-15T01:02:34;17.00;;;5.70;;
41883;SDS011;27566;50.930;5.328;2024-02-15T01:05:01;19.35;;;10.05;;
41883;SDS011;27566;50.930;5.328;2024-02-15T01:07:27;16.40;;;6.88;;
41883;SDS011;27566;50.930;5.328;2024-02-15T01:09:53;17.77;;;9.00;;
41883;SDS011;27566;50.930;5.328;2024-02-15T01:12:19;18.52;;;8.23;;
41883;SDS011;27566;50.930;5.328;2024-02-15T01:14:46;19.02;;;6.88;;
41883;SDS011;27566;50.930;5.328;2024-02-15T01:17:12;14.35;;;7.60;;
41883;SDS011;27566;50.930;5.328;2024-02-15T01:19:38;18.80;;;9.73;;
41883;SDS011;27566;50.930;5.328;2024-02-15T01:22:04;13.55;;;5.35;;
41883;SDS011;27566;50.930;5.328;2024-02-15T01:24:31;21.17;;;7.10;;
41883;SDS011;27566;50.930;5.328;2024-02-15T01:26:57;12.07;;;8.60;;
41883;SDS011;27566;50.930;5.328;2024-02-15T01:29:23;17.42;;;9.20;;
41883;SDS011;27566;50.930;5.328;2024-02-15T01:31:50;14.85;;;7.38;;
41883;SDS011;27566;50.930;5.328;2024-02-15T01:34:16;13.30;;;5.25;;
41883;SDS011;27566;50.930;5.328;2024-02-15T01:36:42;18.27;;;7.82;;
41883;SDS011;27566;50.930;5.328;2024-02-15T01:39:08;19.45;;;7.93;;
41883;SDS011;27566;50.930;5.328;2024-02-15T01:41:35;14.65;;;7.18;;
41883;SDS011;27566;50.930;5.328;2024-02-15T01:44:01;17.63;;;7.55;;
41883;SDS011;27566;50.930;5.328;2024-02-15T01:46:27;17.73;;;7.53;;
41883;SDS011;27566;50.930;5.328;2024-02-15T01:48:54;14.98;;;5.82;;
41883;SDS011;27566;50.930;5.328;2024-02-15T01:51:21;12.43;;;5.30;;
41883;SDS011;27566;50.930;5.328;2024-02-15T01:53:49;21.83;;;8.45;;
41883;SDS011;27566;50.930;5.328;2024-02-15T01:56:15;14.80;;;4.68;;
41883;SDS011;27566;50.930;5.328;2024-02-15T01:58:42;15.98;;;4.80;;
41883;SDS011;27566;50.930;5.328;2024-02-15T02:01:09;11.30;;;4.95;;
41883;SDS011;27566;50.930;5.328;2024-02-15T02:03:35;15.27;;;5.47;;
41883;SDS011;27566;50.930;5.328;2024-02-15T02:06:02;13.48;;;5.95;;
41883;SDS011;27566;50.930;5.328;2024-02-15T02:08:28;16.65;;;6.05;;
41883;SDS011;27566;50.930;5.328;2024-02-15T02:10:54;12.32;;;5.07;;
41883;SDS011;27566;50.930;5.328;2024-02-15T02:13:19;12.32;;;5.43;;
41883;SDS011;27566;50.930;5.328;2024-02-15T02:15:45;13.68;;;5.68;;
41883;SDS011;27566;50.930;5.328;2024-02-15T02:18:11;12.63;;;5.20;;
41883;SDS011;27566;50.930;5.328;2024-02-15T02:20:37;13.38;;;5.28;;
41883;SDS011;27566;50.930;5.328;2024-02-15T02:23:07;13.32;;;5.15;;
41883;SDS011;27566;50.930;5.328;2024-02-15T02:25:39;13.20;;;6.05;;
41883;SDS011;27566;50.930;5.328;2024-02-15T02:28:07;14.07;;;6.47;;
41883;SDS011;27566;50.930;5.328;2024-02-15T02:30:33;11.52;;;4.28;;
41883;SDS011;27566;50.930;5.328;2024-02-15T02:32:59;13.05;;;4.28;;
41883;SDS011;27566;50.930;5.328;2024-02-15T02:35:26;18.60;;;5.32;;
41883;SDS011;27566;50.930;5.328;2024-02-15T02:37:56;13.38;;;5.93;;
41883;SDS011;27566;50.930;5.328;2024-02-15T02:40:22;10.32;;;4.70;;
41883;SDS011;27566;50.930;5.328;2024-02-15T02:42:48;10.23;;;4.53;;
41883;SDS011;27566;50.930;5.328;2024-02-15T02:45:16;10.57;;;4.22;;
41883;SDS011;27566;50.930;5.328;2024-02-15T02:47:44;12.32;;;3.53;;
41883;SDS011;27566;50.930;5.328;2024-02-15T02:50:10;10.80;;;4.57;;
41883;SDS011;27566;50.930;5.328;2024-02-15T02:52:36;9.50;;;3.75;;
41883;SDS011;27566;50.930;5.328;2024-02-15T02:55:04;15.20;;;5.25;;
41883;SDS011;27566;50.930;5.328;2024-02-15T02:57:33;12.40;;;3.25;;
41883;SDS011;27566;50.930;5.328;2024-02-15T03:00:02;10.20;;;5.10;;
41883;SDS011;27566;50.930;5.328;2024-02-15T03:02:41;9.25;;;3.50;;
41883;SDS011;27566;50.930;5.328;2024-02-15T03:05:08;7.13;;;2.38;;
41883;SDS011;27566;50.930;5.328;2024-02-15T03:07:36;11.10;;;4.20;;
41883;SDS011;27566;50.930;5.328;2024-02-15T03:10:06;11.73;;;3.75;;
41883;SDS011;27566;50.930;5.328;2024-02-15T03:12:33;14.32;;;4.35;;
41883;SDS011;27566;50.930;5.328;2024-02-15T03:15:06;9.00;;;3.30;;
41883;SDS011;27566;50.930;5.328;2024-02-15T03:17:39;11.55;;;3.83;;
41883;SDS011;27566;50.930;5.328;2024-02-15T03:20:06;16.98;;;4.05;;
41883;SDS011;27566;50.930;5.328;2024-02-15T03:22:38;18.67;;;3.93;;
41883;SDS011;27566;50.930;5.328;2024-02-15T03:25:04;7.35;;;3.47;;
41883;SDS011;27566;50.930;5.328;2024-02-15T03:27:35;4.82;;;2.35;;
41883;SDS011;27566;50.930;5.328;2024-02-15T03:30:02;13.40;;;4.15;;
41883;SDS011;27566;50.930;5.328;2024-02-15T03:32:29;15.10;;;4.55;;
41883;SDS011;27566;50.930;5.328;2024-02-15T03:34:55;11.35;;;5.22;;
41883;SDS011;27566;50.930;5.328;2024-02-15T03:37:21;13.95;;;3.17;;
41883;SDS011;27566;50.930;5.328;2024-02-15T03:39:47;8.05;;;2.90;;
41883;SDS011;27566;50.930;5.328;2024-02-15T03:42:13;11.25;;;2.88;;
41883;SDS011;27566;50.930;5.328;2024-02-15T03:44:40;8.13;;;3.67;;
41883;SDS011;27566;50.930;5.328;2024-02-15T03:47:06;11.88;;;4.25;;
41883;SDS011;27566;50.930;5.328;2024-02-15T03:49:32;9.02;;;3.72;;
41883;SDS011;27566;50.930;5.328;2024-02-15T03:51:58;11.40;;;4.28;;
41883;SDS011;27566;50.930;5.328;2024-02-15T03:54:26;8.07;;;2.83;;
41883;SDS011;27566;50.930;5.328;2024-02-15T03:56:54;11.02;;;3.15;;
41883;SDS011;27566;50.930;5.328;2024-02-15T03:59:22;15.82;;;3.97;;
41883;SDS011;27566;50.930;5.328;2024-02-15T04:01:55;13.98;;;4.25;;
41883;SDS011;27566;50.930;5.328;2024-02-15T04:04:22;7.47;;;2.53;;
41883;SDS011;27566;50.930;5.328;2024-02-15T04:06:51;6.35;;;2.95;;
41883;SDS011;27566;50.930;5.328;2024-02-15T04:09:18;10.10;;;2.83;;
41883;SDS011;27566;50.930;5.328;2024-02-15T04:11:46;13.13;;;4.65;;
41883;SDS011;27566;50.930;5.328;2024-02-15T04:14:17;9.68;;;3.67;;
41883;SDS011;27566;50.930;5.328;2024-02-15T04:16:43;9.20;;;3.15;;
41883;SDS011;27566;50.930;5.328;2024-02-15T04:19:10;11.35;;;3.63;;
41883;SDS011;27566;50.930;5.328;2024-02-15T04:21:36;18.20;;;3.50;;
41883;SDS011;27566;50.930;5.328;2024-02-15T04:24:04;14.75;;;4.13;;
41883;SDS011;27566;50.930;5.328;2024-02-15T04:26:30;14.13;;;4.00;;
41883;SDS011;27566;50.930;5.328;2024-02-15T04:28:57;9.88;;;2.47;;
41883;SDS011;27566;50.930;5.328;2024-02-15T04:31:24;9.00;;;3.08;;
41883;SDS011;27566;50.930;5.328;2024-02-15T04:33:53;7.75;;;4.00;;
41883;SDS011;27566;50.930;5.328;2024-02-15T04:36:20;8.80;;;3.42;;
41883;SDS011;27566;50.930;5.328;2024-02-15T04:38:50;10.50;;;3.78;;
41883;SDS011;27566;50.930;5.328;2024-02-15T04:41:17;7.60;;;3.28;;
41883;SDS011;27566;50.930;5.328;2024-02-15T04:43:51;12.30;;;3.65;;
41883;SDS011;27566;50.930;5.328;2024-02-15T04:46:17;9.43;;;3.35;;
41883;SDS011;27566;50.930;5.328;2024-02-15T04:48:47;8.18;;;2.83;;
41883;SDS011;27566;50.930;5.328;2024-02-15T04:51:16;8.63;;;3.60;;
41883;SDS011;27566;50.930;5.328;2024-02-15T04:53:46;9.48;;;3.22;;
41883;SDS011;27566;50.930;5.328;2024-02-15T04:56:13;12.50;;;3.70;;
41883;SDS011;27566;50.930;5.328;2024-02-15T04:58:39;12.73;;;4.43;;
41883;SDS011;27566;50.930;5.328;2024-02-15T05:01:16;12.15;;;3.63;;
41883;SDS011;27566;50.930;5.328;2024-02-15T05:03:42;6.13;;;2.30;;
41883;SDS011;27566;50.930;5.328;2024-02-15T05:06:09;6.07;;;2.85;;
41883;SDS011;27566;50.930;5.328;2024-02-15T05:08:38;6.22;;;2.25;;
41883;SDS011;27566;50.930;5.328;2024-02-15T05:11:11;10.60;;;3.33;;
41883;SDS011;27566;50.930;5.328;2024-02-15T05:13:46;5.95;;;2.92;;
41883;SDS011;27566;50.930;5.328;2024-02-15T05:16:12;8.23;;;3.50;;
41883;SDS011;27566;50.930;5.328;2024-02-15T05:18:38;13.35;;;3.30;;
41883;SDS011;27566;50.930;5.328;2024-02-15T05:21:06;9.45;;;3.03;;
41883;SDS011;27566;50.930;5.328;2024-02-15T05:23:35;9.73;;;2.47;;
41883;SDS011;27566;50.930;5.328;2024-02-15T05:26:03;7.22;;;2.95;;
41883;SDS011;27566;50.930;5.328;2024-02-15T05:28:29;8.57;;;2.70;;
41883;SDS011;27566;50.930;5.328;2024-02-15T05:31:14;8.68;;;3.50;;
41883;SDS011;27566;50.930;5.328;2024-02-15T05:33:48;6.68;;;3.08;;
41883;SDS011;27566;50.930;5.328;2024-02-15T05:36:15;9.05;;;2.85;;
41883;SDS011;27566;50.930;5.328;2024-02-15T05:38:46;9.43;;;3.25;;
41883;SDS011;27566;50.930;5.328;2024-02-15T05:41:13;8.05;;;3.15;;
41883;SDS011;27566;50.930;5.328;2024-02-15T05:43:39;8.55;;;2.97;;
41883;SDS011;27566;50.930;5.328;2024-02-15T05:46:08;7.57;;;2.65;;
41883;SDS011;27566;50.930;5.328;2024-02-15T05:48:35;9.75;;;2.85;;
41883;SDS011;27566;50.930;5.328;2024-02-15T05:51:02;9.02;;;4.30;;
41883;SDS011;27566;50.930;5.328;2024-02-15T05:53:29;6.20;;;2.75;;
41883;SDS011;27566;50.930;5.328;2024-02-15T05:55:58;6.80;;;2.38;;
41883;SDS011;27566;50.930;5.328;2024-02-15T05:58:24;9.50;;;2.70;;
41883;SDS011;27566;50.930;5.328;2024-02-15T06:00:50;8.20;;;2.80;;
41883;SDS011;27566;50.930;5.328;2024-02-15T06:03:18;8.52;;;3.78;;
41883;SDS011;27566;50.930;5.328;2024-02-15T06:05:47;9.88;;;3.25;;
41883;SDS011;27566;50.930;5.328;2024-02-15T06:08:13;10.02;;;2.25;;
41883;SDS011;27566;50.930;5.328;2024-02-15T06:10:48;9.05;;;2.80;;
41883;SDS011;27566;50.930;5.328;2024-02-15T06:13:15;9.48;;;2.20;;
41883;SDS011;27566;50.930;5.328;2024-02-15T06:15:41;7.05;;;2.17;;
41883;SDS011;27566;50.930;5.328;2024-02-15T06:18:07;11.23;;;4.00;;
41883;SDS011;27566;50.930;5.328;2024-02-15T06:20:37;5.88;;;2.38;;
41883;SDS011;27566;50.930;5.328;2024-02-15T06:23:04;8.02;;;2.33;;
41883;SDS011;27566;50.930;5.328;2024-02-15T06:25:32;10.18;;;3.40;;
41883;SDS011;27566;50.930;5.328;2024-02-15T06:27:58;8.68;;;3.17;;
41883;SDS011;27566;50.930;5.328;2024-02-15T06:30:27;14.07;;;3.03;;
41883;SDS011;27566;50.930;5.328;2024-02-15T06:33:12;7.85;;;3.15;;
41883;SDS011;27566;50.930;5.328;2024-02-15T06:36:07;11.75;;;3.13;;
41883;SDS011;27566;50.930;5.328;2024-02-15T06:38:51;5.25;;;2.30;;
41883;SDS011;27566;50.930;5.328;2024-02-15T06:41:35;11.57;;;3.10;;
41883;SDS011;27566;50.930;5.328;2024-02-15T06:44:01;8.68;;;2.85;;
41883;SDS011;27566;50.930;5.328;2024-02-15T06:46:28;7.85;;;3.17;;
41883;SDS011;27566;50.930;5.328;2024-02-15T06:48:54;11.35;;;2.85;;
41883;SDS011;27566;50.930;5.328;2024-02-15T06:51:20;8.95;;;2.55;;
41883;SDS011;27566;50.930;5.328;2024-02-15T06:53:45;6.68;;;2.88;;
41883;SDS011;27566;50.930;5.328;2024-02-15T06:56:12;6.28;;;3.45;;
41883;SDS011;27566;50.930;5.328;2024-02-15T06:58:39;8.75;;;4.03;;
41883;SDS011;27566;50.930;5.328;2024-02-15T07:01:07;7.78;;;2.45;;
41883;SDS011;27566;50.930;5.328;2024-02-15T07:03:33;7.97;;;3.17;;
41883;SDS011;27566;50.930;5.328;2024-02-15T07:06:00;9.32;;;2.80;;
41883;SDS011;27566;50.930;5.328;2024-02-15T07:08:28;7.03;;;2.60;;
41883;SDS011;27566;50.930;5.328;2024-02-15T07:10:54;10.50;;;3.42;;
41883;SDS011;27566;50.930;5.328;2024-02-15T07:13:20;8.93;;;2.22;;
41883;SDS011;27566;50.930;5.328;2024-02-15T07:15:47;6.75;;;2.40;;
41883;SDS011;27566;50.930;5.328;2024-02-15T07:18:13;5.47;;;2.30;;
41883;SDS011;27566;50.930;5.328;2024-02-15T07:20:45;9.32;;;2.28;;
41883;SDS011;27566;50.930;5.328;2024-02-15T07:23:11;9.73;;;2.45;;
41883;SDS011;27566;50.930;5.328;2024-02-15T07:25:37;6.22;;;2.17;;
41883;SDS011;27566;50.930;5.328;2024-02-15T07:28:04;8.13;;;2.63;;
41883;SDS011;27566;50.930;5.328;2024-02-15T07:30:30;6.07;;;2.10;;
41883;SDS011;27566;50.930;5.328;2024-02-15T07:32:56;5.80;;;2.30;;
41883;SDS011;27566;50.930;5.328;2024-02-15T07:35:23;7.55;;;3.08;;
41883;SDS011;27566;50.930;5.328;2024-02-15T07:37:53;8.13;;;3.20;;
41883;SDS011;27566;50.930;5.328;2024-02-15T07:40:23;7.60;;;2.50;;
41883;SDS011;27566;50.930;5.328;2024-02-15T07:42:53;9.37;;;2.23;;
41883;SDS011;27566;50.930;5.328;2024-02-15T07:45:19;9.25;;;2.40;;
41883;SDS011;27566;50.930;5.328;2024-02-15T07:47:45;4.75;;;2.20;;
41883;SDS011;27566;50.930;5.328;2024-02-15T07:50:14;5.18;;;1.90;;
41883;SDS011;27566;50.930;5.328;2024-02-15T07:52:48;9.88;;;2.00;;
41883;SDS011;27566;50.930;5.328;2024-02-15T07:55:14;7.03;;;2.28;;
41883;SDS011;27566;50.930;5.328;2024-02-15T07:57:40;5.50;;;1.48;;
41883;SDS011;27566;50.930;5.328;2024-02-15T08:00:06;7.53;;;2.47;;
41883;SDS011;27566;50.930;5.328;2024-02-15T08:02:39;7.97;;;2.45;;
41883;SDS011;27566;50.930;5.328;2024-02-15T08:05:06;5.97;;;1.67;;
41883;SDS011;27566;50.930;5.328;2024-02-15T08:07:40;8.80;;;2.55;;
41883;SDS011;27566;50.930;5.328;2024-02-15T08:10:07;10.05;;;2.38;;
41883;SDS011;27566;50.930;5.328;2024-02-15T08:12:38;5.47;;;2.25;;
41883;SDS011;27566;50.930;5.328;2024-02-15T08:15:08;6.15;;;1.90;;
41883;SDS011;27566;50.930;5.328;2024-02-15T08:17:38;9.30;;;1.85;;
41883;SDS011;27566;50.930;5.328;2024-02-15T08:20:15;4.55;;;1.73;;
41883;SDS011;27566;50.930;5.328;2024-02-15T08:22:46;6.43;;;1.83;;
41883;SDS011;27566;50.930;5.328;2024-02-15T08:25:13;7.82;;;1.98;;
41883;SDS011;27566;50.930;5.328;2024-02-15T08:27:43;5.53;;;2.42;;
41883;SDS011;27566;50.930;5.328;2024-02-15T08:30:15;8.95;;;2.70;;
41883;SDS011;27566;50.930;5.328;2024-02-15T08:32:42;4.30;;;1.80;;
41883;SDS011;27566;50.930;5.328;2024-02-15T08:35:13;5.35;;;2.15;;
41883;SDS011;27566;50.930;5.328;2024-02-15T08:37:40;7.43;;;2.50;;
41883;SDS011;27566;50.930;5.328;2024-02-15T08:40:10;4.90;;;2.05;;
41883;SDS011;27566;50.930;5.328;2024-02-15T08:42:37;6.55;;;2.92;;
41883;SDS011;27566;50.930;5.328;2024-02-15T08:45:06;6.32;;;1.90;;
41883;SDS011;27566;50.930;5.328;2024-02-15T08:47:37;3.67;;;1.63;;
41883;SDS011;27566;50.930;5.328;2024-02-15T08:50:04;5.25;;;2.05;;
41883;SDS011;27566;50.930;5.328;2024-02-15T08:52:31;7.40;;;2.33;;
41883;SDS011;27566;50.930;5.328;2024-02-15T08:54:57;6.47;;;1.83;;
41883;SDS011;27566;50.930;5.328;2024-02-15T08:57:25;6.38;;;2.60;;
41883;SDS011;27566;50.930;5.328;2024-02-15T08:59:52;5.13;;;2.75;;
41883;SDS011;27566;50.930;5.328;2024-02-15T09:02:18;4.45;;;1.90;;
41883;SDS011;27566;50.930;5.328;2024-02-15T09:04:44;4.38;;;1.95;;
41883;SDS011;27566;50.930;5.328;2024-02-15T09:07:10;7.32;;;2.05;;
41883;SDS011;27566;50.930;5.328;2024-02-15T09:09:36;8.07;;;2.38;;
41883;SDS011;27566;50.930;5.328;2024-02-15T09:12:02;5.55;;;1.77;;
41883;SDS011;27566;50.930;5.328;2024-02-15T09:14:34;5.30;;;1.67;;
41883;SDS011;27566;50.930;5.328;2024-02-15T09:17:02;11.90;;;3.20;;
41883;SDS011;27566;50.930;5.328;2024-02-15T09:19:36;7.43;;;2.55;;
41883;SDS011;27566;50.930;5.328;2024-02-15T09:22:02;3.53;;;1.52;;
41883;SDS011;27566;50.930;5.328;2024-02-15T09:24:30;6.20;;;2.08;;
41883;SDS011;27566;50.930;5.328;2024-02-15T09:26:58;4.57;;;1.75;;
41883;SDS011;27566;50.930;5.328;2024-02-15T09:29:24;5.28;;;1.77;;
41883;SDS011;27566;50.930;5.328;2024-02-15T09:31:50;3.83;;;1.80;;
41883;SDS011;27566;50.930;5.328;2024-02-15T09:34:18;7.50;;;1.58;;
41883;SDS011;27566;50.930;5.328;2024-02-15T09:36:44;4.95;;;1.95;;
41883;SDS011;27566;50.930;5.328;2024-02-15T09:39:10;4.15;;;1.50;;
41883;SDS011;27566;50.930;5.328;2024-02-15T09:41:39;4.88;;;1.90;;
41883;SDS011;27566;50.930;5.328;2024-02-15T09:44:07;5.05;;;2.20;;
41883;SDS011;27566;50.930;5.328;2024-02-15T09:46:40;4.05;;;1.42;;
41883;SDS011;27566;50.930;5.328;2024-02-15T09:49:11;4.88;;;1.50;;
41883;SDS011;27566;50.930;5.328;2024-02-15T09:51:39;3.10;;;1.58;;
41883;SDS011;27566;50.930;5.328;2024-02-15T09:54:05;5.18;;;1.42;;
41883;SDS011;27566;50.930;5.328;2024-02-15T09:56:34;3.38;;;1.17;;
41883;SDS011;27566;50.930;5.328;2024-02-15T09:59:01;2.40;;;0.90;;
41883;SDS011;27566;50.930;5.328;2024-02-15T10:01:27;8.65;;;1.90;;
41883;SDS011;27566;50.930;5.328;2024-02-15T10:03:57;4.43;;;1.70;;
41883;SDS011;27566;50.930;5.328;2024-02-15T10:06:24;6.32;;;1.48;;
41883;SDS011;27566;50.930;5.328;2024-02-15T10:08:52;4.43;;;1.55;;
41883;SDS011;27566;50.930;5.328;2024-02-15T10:11:18;2.13;;;1.25;;
41883;SDS011;27566;50.930;5.328;2024-02-15T10:13:45;2.78;;;1.40;;
41883;SDS011;27566;50.930;5.328;2024-02-15T10:16:16;7.38;;;1.88;;
41883;SDS011;27566;50.930;5.328;2024-02-15T10:18:50;6.07;;;2.45;;
41883;SDS011;27566;50.930;5.328;2024-02-15T10:21:25;2.53;;;1.25;;
41883;SDS011;27566;50.930;5.328;2024-02-15T10:24:06;4.63;;;1.45;;
41883;SDS011;27566;50.930;5.328;2024-02-15T10:26:33;6.60;;;2.15;;
41883;SDS011;27566;50.930;5.328;2024-02-15T10:29:07;10.00;;;2.50;;
41883;SDS011;27566;50.930;5.328;2024-02-15T10:31:36;2.92;;;1.38;;
41883;SDS011;27566;50.930;5.328;2024-02-15T10:34:04;4.20;;;1.30;;
41883;SDS011;27566;50.930;5.328;2024-02-15T10:36:31;4.57;;;1.42;;
41883;SDS011;27566;50.930;5.328;2024-02-15T10:39:13;3.55;;;1.10;;
41883;SDS011;27566;50.930;5.328;2024-02-15T10:41:52;6.40;;;2.17;;
41883;SDS011;27566;50.930;5.328;2024-02-15T10:44:20;2.85;;;1.40;;
41883;SDS011;27566;50.930;5.328;2024-02-15T10:46:48;3.35;;;1.70;;
41883;SDS011;27566;50.930;5.328;2024-02-15T10:49:23;6.53;;;2.78;;
41883;SDS011;27566;50.930;5.328;2024-02-15T10:51:56;2.63;;;1.23;;
41883;SDS011;27566;50.930;5.328;2024-02-15T10:56:50;5.30;;;1.80;;
41883;SDS011;27566;50.930;5.328;2024-02-15T10:59:21;5.20;;;1.80;;
41883;SDS011;27566;50.930;5.328;2024-02-15T11:01:57;4.20;;;1.55;;
41883;SDS011;27566;50.930;5.328;2024-02-15T11:04:24;4.95;;;1.30;;
41883;SDS011;27566;50.930;5.328;2024-02-15T11:09:23;4.20;;;1.80;;
41883;SDS011;27566;50.930;5.328;2024-02-15T11:11:53;4.32;;;1.45;;
41883;SDS011;27566;50.930;5.328;2024-02-15T11:16:54;3.50;;;1.83;;
41883;SDS011;27566;50.930;5.328;2024-02-15T11:22:08;8.05;;;1.25;;
41883;SDS011;27566;50.930;5.328;2024-02-15T11:24:36;3.58;;;1.42;;
41883;SDS011;27566;50.930;5.328;2024-02-15T11:27:10;4.25;;;1.63;;
41883;SDS011;27566;50.930;5.328;2024-02-15T11:32:49;7.13;;;1.80;;
41883;SDS011;27566;50.930;5.328;2024-02-15T11:35:18;6.22;;;2.15;;
41883;SDS011;27566;50.930;5.328;2024-02-15T11:40:23;5.97;;;1.85;;
41883;SDS011;27566;50.930;5.328;2024-02-15T11:42:52;5.80;;;1.88;;
41883;SDS011;27566;50.930;5.328;2024-02-15T11:45:19;5.85;;;2.25;;
41883;SDS011;27566;50.930;5.328;2024-02-15T11:47:49;4.90;;;1.30;;
41883;SDS011;27566;50.930;5.328;2024-02-15T11:50:19;4.00;;;1.30;;
41883;SDS011;27566;50.930;5.328;2024-02-15T11:52:47;3.28;;;1.20;;
41883;SDS011;27566;50.930;5.328;2024-02-15T11:55:17;2.90;;;1.05;;
41883;SDS011;27566;50.930;5.328;2024-02-15T11:58:00;5.20;;;1.60;;
41883;SDS011;27566;50.930;5.328;2024-02-15T12:00:38;6.80;;;1.60;;
41883;SDS011;27566;50.930;5.328;2024-02-15T12:03:23;3.80;;;1.35;;
41883;SDS011;27566;50.930;5.328;2024-02-15T12:06:08;3.45;;;1.38;;
41883;SDS011;27566;50.930;5.328;2024-02-15T12:08:53;6.03;;;1.25;;
41883;SDS011;27566;50.930;5.328;2024-02-15T12:11:38;2.70;;;1.15;;
41883;SDS011;27566;50.930;5.328;2024-02-15T12:14:24;5.80;;;2.15;;
41883;SDS011;27566;50.930;5.328;2024-02-15T12:17:09;6.60;;;2.30;;
41883;SDS011;27566;50.930;5.328;2024-02-15T12:19:56;2.25;;;1.15;;
41883;SDS011;27566;50.930;5.328;2024-02-15T12:22:25;4.70;;;2.30;;
41883;SDS011;27566;50.930;5.328;2024-02-15T12:24:59;7.82;;;1.65;;
41883;SDS011;27566;50.930;5.328;2024-02-15T12:27:27;2.33;;;1.00;;
41883;SDS011;27566;50.930;5.328;2024-02-15T12:29:56;7.35;;;1.77;;
41883;SDS011;27566;50.930;5.328;2024-02-15T12:32:26;3.08;;;1.02;;
41883;SDS011;27566;50.930;5.328;2024-02-15T12:34:53;5.47;;;1.52;;
41883;SDS011;27566;50.930;5.328;2024-02-15T12:37:35;6.13;;;1.67;;
41883;SDS011;27566;50.930;5.328;2024-02-15T12:40:17;3.97;;;1.70;;
41883;SDS011;27566;50.930;5.328;2024-02-15T12:45:18;5.00;;;1.10;;
41883;SDS011;27566;50.930;5.328;2024-02-15T12:47:47;4.40;;;1.30;;
41883;SDS011;27566;50.930;5.328;2024-02-15T12:50:18;6.40;;;1.27;;
41883;SDS011;27566;50.930;5.328;2024-02-15T12:52:54;3.47;;;1.40;;
41883;SDS011;27566;50.930;5.328;2024-02-15T12:55:27;7.15;;;1.25;;
41883;SDS011;27566;50.930;5.328;2024-02-15T12:58:00;3.17;;;1.25;;
41883;SDS011;27566;50.930;5.328;2024-02-15T13:00:33;5.78;;;2.10;;
41883;SDS011;27566;50.930;5.328;2024-02-15T13:03:02;5.25;;;1.00;;
41883;SDS011;27566;50.930;5.328;2024-02-15T13:05:29;2.25;;;1.25;;
41883;SDS011;27566;50.930;5.328;2024-02-15T13:07:56;2.30;;;1.20;;
41883;SDS011;27566;50.930;5.328;2024-02-15T13:10:29;5.07;;;1.75;;
41883;SDS011;27566;50.930;5.328;2024-02-15T13:12:56;4.25;;;1.63;;
41883;SDS011;27566;50.930;5.328;2024-02-15T13:15:23;5.68;;;2.00;;
41883;SDS011;27566;50.930;5.328;2024-02-15T13:17:57;3.80;;;2.17;;
41883;SDS011;27566;50.930;5.328;2024-02-15T13:20:24;10.45;;;2.42;;
41883;SDS011;27566;50.930;5.328;2024-02-15T13:23:06;8.70;;;1.42;;
41883;SDS011;27566;50.930;5.328;2024-02-15T13:25:37;5.50;;;1.25;;
41883;SDS011;27566;50.930;5.328;2024-02-15T13:28:04;4.25;;;1.63;;
41883;SDS011;27566;50.930;5.328;2024-02-15T13:30:31;7.10;;;2.30;;
41883;SDS011;27566;50.930;5.328;2024-02-15T13:32:57;2.75;;;1.15;;
41883;SDS011;27566;50.930;5.328;2024-02-15T13:35:24;4.72;;;1.50;;
41883;SDS011;27566;50.930;5.328;2024-02-15T13:37:51;4.32;;;2.03;;
41883;SDS011;27566;50.930;5.328;2024-02-15T13:40:19;5.18;;;2.30;;
41883;SDS011;27566;50.930;5.328;2024-02-15T13:42:53;6.85;;;2.05;;
41883;SDS011;27566;50.930;5.328;2024-02-15T13:45:24;5.80;;;2.00;;
41883;SDS011;27566;50.930;5.328;2024-02-15T13:47:55;3.42;;;1.95;;
41883;SDS011;27566;50.930;5.328;2024-02-15T13:50:22;5.03;;;2.28;;
41883;SDS011;27566;50.930;5.328;2024-02-15T13:52:49;7.78;;;2.35;;
41883;SDS011;27566;50.930;5.328;2024-02-15T13:55:18;2.95;;;1.45;;
41883;SDS011;27566;50.930;5.328;2024-02-15T13:57:47;4.05;;;2.05;;
41883;SDS011;27566;50.930;5.328;2024-02-15T14:00:14;5.15;;;2.40;;
41883;SDS011;27566;50.930;5.328;2024-02-15T14:02:51;4.68;;;2.20;;
41883;SDS011;27566;50.930;5.328;2024-02-15T14:05:21;6.78;;;3.08;;
41883;SDS011;27566;50.930;5.328;2024-02-15T14:07:58;6.38;;;2.50;;
41883;SDS011;27566;50.930;5.328;2024-02-15T14:10:28;5.90;;;2.17;;
41883;SDS011;27566;50.930;5.328;2024-02-15T14:12:55;5.32;;;1.75;;
41883;SDS011;27566;50.930;5.328;2024-02-15T14:15:23;4.55;;;2.13;;
41883;SDS011;27566;50.930;5.328;2024-02-15T14:17:49;27.50;;;3.47;;
41883;SDS011;27566;50.930;5.328;2024-02-15T14:20:16;9.65;;;3.92;;
41883;SDS011;27566;50.930;5.328;2024-02-15T14:22:44;5.38;;;2.85;;
41883;SDS011;27566;50.930;5.328;2024-02-15T14:25:14;6.28;;;2.22;;
41883;SDS011;27566;50.930;5.328;2024-02-15T14:27:44;6.50;;;2.22;;
41883;SDS011;27566;50.930;5.328;2024-02-15T14:30:12;3.72;;;1.77;;
41883;SDS011;27566;50.930;5.328;2024-02-15T14:32:57;5.40;;;1.67;;
41883;SDS011;27566;50.930;5.328;2024-02-15T14:38:03;3.65;;;1.60;;
41883;SDS011;27566;50.930;5.328;2024-02-15T14:40:37;6.40;;;3.35;;
41883;SDS011;27566;50.930;5.328;2024-02-15T14:43:04;5.60;;;1.98;;
41883;SDS011;27566;50.930;5.328;2024-02-15T14:45:35;9.23;;;3.20;;
41883;SDS011;27566;50.930;5.328;2024-02-15T14:48:06;5.20;;;2.38;;
41883;SDS011;27566;50.930;5.328;2024-02-15T14:50:35;3.88;;;1.42;;
41883;SDS011;27566;50.930;5.328;2024-02-15T14:53:01;5.15;;;1.98;;
41883;SDS011;27566;50.930;5.328;2024-02-15T14:55:27;3.33;;;1.48;;
41883;SDS011;27566;50.930;5.328;2024-02-15T14:57:59;6.63;;;2.17;;
41883;SDS011;27566;50.930;5.328;2024-02-15T15:00:25;8.35;;;2.60;;
41883;SDS011;27566;50.930;5.328;2024-02-15T15:02:52;3.95;;;1.95;;
41883;SDS011;27566;50.930;5.328;2024-02-15T15:05:21;5.32;;;1.48;;
41883;SDS011;27566;50.930;5.328;2024-02-15T15:08:06;5.32;;;1.85;;
41883;SDS011;27566;50.930;5.328;2024-02-15T15:10:51;4.35;;;1.77;;
41883;SDS011;27566;50.930;5.328;2024-02-15T15:13:35;3.30;;;1.60;;
41883;SDS011;27566;50.930;5.328;2024-02-15T15:16:02;6.15;;;1.58;;